Latest Weather Observations for Coldstream

IDV60801

Issued at 6:05 pm EST Monday 28 July 2014 (issued every 30 minutes, with the page automatically refreshed every 10 minutes)

About weather observations | Map of weather stations | Latest weather observations for VIC | Other Formats
Station Details ID: 086383 Name: COLDSTREAM Lat: -37.72 Lon: 145.41 Height: 83.0 m
Data from the previous 72 hours. | See also: Recent months at Coldstream
Date/Time
EST
Temp
°C
App
Temp
°C
Dew
Point
Rel
Hum
%
Delta-T
°C
Wind Press
QNH
hPa
Press
MSL
hPa
Rain
since 9 am
mm
Dir
 
Spd
km/h
Gust
km/h
Spd
kts
Gust
kts
28/06:00pm 12.8 8.9 7.0 68 2.8 N 17 28 9 15 1013.0 1013.2 0.0
28/05:30pm 13.2 9.2 6.8 65 3.1 N 17 28 9 15 1013.3 - 0.0
28/05:00pm 14.1 10.9 6.7 61 3.6 N 13 24 7 13 1013.7 1013.9 0.0
28/04:30pm 14.9 10.0 6.7 58 4.0 N 22 35 12 19 1013.1 - 0.0
28/04:00pm 15.6 11.1 6.9 56 4.3 N 20 32 11 17 1012.8 1013.0 0.0
28/03:30pm 16.3 11.9 7.3 55 4.5 N 20 39 11 21 1012.6 - 0.0
28/03:00pm 16.6 11.9 7.8 56 4.4 N 22 35 12 19 1012.8 1013.0 0.0
28/02:30pm 16.7 11.2 7.6 55 4.6 N 26 41 14 22 1013.0 - 0.0
28/02:00pm 16.8 12.5 7.7 55 4.6 N 20 35 11 19 1013.3 1013.5 0.0
28/01:30pm 16.2 11.2 8.2 59 4.1 N 24 35 13 19 1013.5 - 0.0
28/01:00pm 15.3 8.5 6.8 57 4.2 N 32 46 17 25 1014.2 1014.3 0.0
28/12:30pm 15.3 8.8 6.6 56 4.3 N 30 43 16 23 1014.7 - 0.0
28/12:00pm 15.2 9.2 7.0 58 4.0 N 28 41 15 22 1015.3 1015.4 0.0
28/11:30am 14.5 8.3 6.3 58 4.0 N 28 46 15 25 1015.7 - 0.0
28/11:17am 14.4 8.3 6.5 59 3.8 N 28 48 15 26 1015.9 - 0.0
28/11:00am 14.1 8.1 6.9 62 3.5 N 28 44 15 24 1016.1 1016.2 0.0
28/10:32am 13.3 6.1 5.9 61 3.5 N 33 54 18 29 1016.3 - 0.0
28/10:30am 13.4 6.5 6.5 63 3.3 N 32 48 17 26 1016.3 - 0.0
28/10:24am 13.3 6.8 6.4 63 3.3 N 30 48 16 26 1016.3 - 0.0
28/10:00am 12.8 5.6 5.9 63 3.3 N 33 50 18 27 1016.3 1016.4 0.0
28/09:30am 12.2 5.2 6.0 66 2.9 N 32 50 17 27 1016.5 - 0.0
28/09:27am 12.1 5.0 5.7 65 3.0 N 32 50 17 27 1016.5 - 0.0
28/09:00am 11.6 5.7 5.7 67 2.7 N 26 39 14 21 1016.7 1016.8 0.0
28/08:30am 11.4 5.5 5.7 68 2.7 N 26 39 14 21 1016.7 - 0.0
28/08:00am 10.6 5.0 5.4 70 2.4 N 24 41 13 22 1017.0 1017.1 0.0
28/07:30am 10.4 4.8 5.4 71 2.3 N 24 39 13 21 1017.2 - 0.0
28/07:00am 10.5 6.2 5.3 70 2.4 N 17 26 9 14 1017.4 1017.5 0.0
28/06:30am 10.5 6.2 5.3 70 2.4 N 17 28 9 15 1017.3 - 0.0
28/06:00am 10.6 6.3 5.4 70 2.4 N 17 26 9 14 1017.2 1017.3 0.0
28/05:30am 10.8 6.5 5.3 69 2.5 N 17 30 9 16 1017.3 - 0.0
28/05:00am 11.2 6.4 5.5 68 2.6 N 20 30 11 16 1017.2 1017.3 0.0
28/04:30am 11.1 5.9 5.6 69 2.5 N 22 35 12 19 1017.4 - 0.0
28/04:00am 10.7 6.2 5.9 72 2.2 N 19 30 10 16 1017.4 1017.5 0.0
28/03:30am 10.4 6.7 6.4 76 1.9 NNW 15 22 8 12 1017.9 - 0.0
28/03:00am 10.4 7.1 6.4 76 1.9 N 13 20 7 11 1018.1 1018.3 0.0
28/02:30am 10.3 6.6 6.5 77 1.8 N 15 22 8 12 1018.5 - 0.0
28/02:00am 10.7 7.1 6.6 76 1.9 N 15 22 8 12 1018.8 1019.0 0.0
28/01:30am 11.2 6.9 6.9 75 2.1 N 19 28 10 15 1019.0 - 0.0
28/01:00am 11.0 6.7 6.9 76 1.9 N 19 35 10 19 1019.0 1019.2 0.0
28/12:30am 10.7 6.8 7.2 79 1.7 N 17 28 9 15 1019.2 - 0.0
28/12:00am 10.8 7.3 7.1 78 1.8 N 15 24 8 13 1019.6 1019.8 0.0
 
Date/Time
EST
Temp
°C
App
Temp
°C
Dew
Point
Rel
Hum
%
Delta-T
°C
Wind Press
QNH
hPa
Press
MSL
hPa
Rain
since 9 am
mm
Dir
 
Spd
km/h
Gust
km/h
Spd
kts
Gust
kts
27/11:30pm 10.8 6.9 7.3 79 1.7 N 17 22 9 12 1019.9 - 0.0
27/11:00pm 11.0 7.2 7.5 79 1.7 N 17 28 9 15 1020.2 1020.4 0.0
27/10:30pm 11.0 8.0 7.7 80 1.6 N 13 20 7 11 1020.6 - 0.0
27/10:00pm 11.2 7.4 7.7 79 1.7 N 17 24 9 13 1020.9 1021.1 0.0
27/09:30pm 11.3 7.9 7.8 79 1.7 N 15 20 8 11 1021.3 - 0.0
27/09:00pm 12.0 8.3 8.1 77 1.9 N 17 24 9 13 1021.5 1021.7 0.0
27/08:30pm 11.6 9.1 8.1 79 1.7 N 11 20 6 11 1021.5 - 0.0
27/08:00pm 10.8 8.2 7.7 81 1.5 N 11 17 6 9 1021.3 1021.5 0.0
27/07:30pm 11.0 8.0 7.5 79 1.7 N 13 17 7 9 1021.2 - 0.0
27/07:00pm 10.9 8.9 7.2 78 1.8 N 7 17 4 9 1020.9 1021.1 0.0
27/06:30pm 11.6 8.6 7.5 76 2.0 N 13 20 7 11 1020.7 - 0.0
27/06:00pm 12.3 8.6 8.0 75 2.1 N 17 24 9 13 1021.2 1021.4 0.0
27/05:30pm 12.3 9.4 8.0 75 2.1 N 13 20 7 11 1021.4 - 0.0
27/05:00pm 12.8 9.5 8.1 73 2.3 N 15 22 8 12 1021.5 1021.7 0.0
27/04:30pm 13.2 10.7 8.1 71 2.5 N 11 17 6 9 1021.6 - 0.0
27/04:00pm 13.4 10.0 7.6 68 2.8 N 15 26 8 14 1021.1 1021.3 0.0
27/03:30pm 13.8 10.1 8.0 68 2.9 N 17 26 9 14 1021.2 - 0.0
27/03:00pm 14.0 9.8 8.2 68 2.9 N 20 33 11 18 1020.9 1021.1 0.0
27/02:30pm 13.9 9.4 8.5 70 2.7 N 22 32 12 17 1020.7 - 0.0
27/02:00pm 14.1 9.2 8.3 68 2.9 N 24 39 13 21 1021.3 1021.5 0.0
27/01:30pm 13.7 9.4 7.9 68 2.9 N 20 32 11 17 1021.8 - 0.0
27/01:00pm 14.0 9.8 8.4 69 2.8 N 20 30 11 16 1022.3 1022.5 0.0
27/12:30pm 13.6 9.6 8.4 71 2.6 N 19 28 10 15 1023.0 - 0.0
27/12:00pm 13.5 8.8 7.9 69 2.8 N 22 39 12 21 1023.3 1023.5 0.0
27/11:30am 13.5 8.6 8.6 72 2.5 N 24 33 13 18 1023.9 - 0.0
27/11:00am 13.4 9.4 8.3 71 2.5 N 19 28 10 15 1024.5 1024.7 0.0
27/10:30am 12.9 8.8 8.6 75 2.2 N 20 28 11 15 1024.9 - 0.0
27/10:00am 12.5 9.6 9.7 83 1.4 N 15 24 8 13 1025.1 1025.3 0.0
27/09:30am 10.2 7.8 8.8 91 0.7 NNE 11 22 6 12 1025.3 - 0.0
27/09:00am 8.8 7.4 8.7 99 0.0 NNE 6 11 3 6 1025.4 1025.6 6.0
27/08:30am 5.7 4.7 5.6 99 0.0 CALM 0 6 0 3 1025.5 - 6.0
27/08:00am 3.1 1.6 3.0 99 0.0 CALM 0 0 0 0 1025.4 1025.6 6.0
27/07:30am 2.2 0.5 2.1 99 0.0 CALM 0 0 0 0 1025.1 - 6.0
27/07:00am 2.3 0.7 2.2 99 0.0 CALM 0 0 0 0 1025.0 1025.2 6.0
27/06:30am 2.5 0.9 2.4 99 0.0 CALM 0 0 0 0 1024.7 - 6.0
27/06:00am 3.1 1.6 3.0 99 0.0 CALM 0 0 0 0 1024.6 1024.8 6.0
27/05:30am 3.5 2.1 3.4 99 0.0 CALM 0 0 0 0 1024.6 - 6.0
27/05:00am 3.9 2.5 3.8 99 0.0 CALM 0 0 0 0 1024.7 1024.9 6.0
27/04:30am 4.9 3.7 4.8 99 0.0 CALM 0 0 0 0 1024.8 - 6.0
27/04:00am 5.7 4.7 5.6 99 0.0 CALM 0 0 0 0 1024.9 1025.1 6.0
27/03:30am 6.3 5.4 6.2 99 0.0 CALM 0 0 0 0 1025.0 - 6.0
27/03:00am 7.6 7.0 7.5 99 0.0 CALM 0 0 0 0 1025.1 1025.3 6.0
27/02:30am 8.6 8.3 8.5 99 0.0 CALM 0 0 0 0 1025.1 - 6.0
27/02:00am 9.0 8.8 8.9 99 0.0 CALM 0 0 0 0 1025.3 1025.5 6.0
27/01:30am 9.3 9.1 9.2 99 0.0 CALM 0 0 0 0 1025.5 - 6.0
27/01:00am 9.5 9.4 9.4 99 0.0 CALM 0 6 0 3 1025.4 1025.6 6.0
27/12:30am 9.9 8.8 9.8 99 0.1 NNW 6 7 3 4 1025.5 - 6.0
27/12:00am 10.3 10.0 10.1 99 0.1 N 2 7 1 4 1025.7 1025.9 6.0
 
Date/Time
EST
Temp
°C
App
Temp
°C
Dew
Point
Rel
Hum
%
Delta-T
°C
Wind Press
QNH
hPa
Press
MSL
hPa
Rain
since 9 am
mm
Dir
 
Spd
km/h
Gust
km/h
Spd
kts
Gust
kts
26/11:30pm 10.4 10.5 10.2 99 0.1 CALM 0 0 0 0 1025.9 - 6.0
26/11:00pm 10.6 10.0 10.4 99 0.1 NNE 4 9 2 5 1025.8 1026.0 6.0
26/10:30pm 10.5 9.5 10.3 99 0.1 NW 6 7 3 4 1025.7 - 6.0
26/10:00pm 10.7 10.9 10.5 99 0.1 CALM 0 0 0 0 1025.7 1025.9 6.0
26/09:30pm 10.8 11.0 10.6 99 0.1 CALM 0 6 0 3 1025.7 - 6.0
26/09:00pm 10.7 10.9 10.5 99 0.1 CALM 0 0 0 0 1025.5 1025.7 5.4
26/08:30pm 10.7 10.9 10.5 99 0.1 CALM 0 0 0 0 1025.4 - 5.2
26/08:00pm 10.7 10.9 10.5 99 0.1 CALM 0 6 0 3 1025.1 1025.3 5.2
26/07:30pm 10.7 10.9 10.4 98 0.2 CALM 0 6 0 3 1025.0 - 5.2
26/07:00pm 10.8 10.9 10.3 97 0.3 CALM 0 0 0 0 1024.9 1025.1 5.2
26/06:30pm 10.9 9.7 10.4 97 0.3 WSW 7 11 4 6 1024.8 - 5.0
26/06:00pm 11.1 9.2 10.6 97 0.3 WSW 11 19 6 10 1024.5 1024.7 4.8
26/05:30pm 11.3 11.2 10.8 97 0.3 W 2 7 1 4 1024.1 - 4.0
26/05:00pm 11.4 11.3 10.8 96 0.3 N 2 7 1 4 1023.7 1023.9 2.8
26/04:30pm 11.5 10.6 10.7 95 0.4 NNE 6 9 3 5 1023.4 - 1.2
26/04:00pm 11.6 10.7 10.8 95 0.4 NE 6 9 3 5 1023.2 1023.4 0.8
26/03:30pm 11.7 11.2 10.8 94 0.5 NE 4 7 2 4 1023.2 - 0.8
26/03:00pm 11.7 11.9 10.6 93 0.6 CALM 0 0 0 0 1023.1 1023.3 0.8
26/02:30pm 11.7 11.9 10.4 92 0.7 CALM 0 0 0 0 1022.8 - 0.4
26/02:00pm 11.7 11.8 10.1 90 0.8 CALM 0 0 0 0 1022.6 1022.8 0.4
26/01:30pm 11.9 9.0 9.8 87 1.1 W 15 22 8 12 1022.6 - 0.4
26/01:00pm 13.6 10.4 8.4 71 2.6 WNW 15 24 8 13 1022.6 1022.8 0.0
26/12:30pm 14.1 12.3 9.3 73 2.5 WNW 9 15 5 8 1022.9 - 0.0
26/12:00pm 13.5 11.6 9.2 75 2.2 W 9 13 5 7 1023.2 1023.4 0.0
26/11:30am 13.5 11.4 9.6 77 2.0 WNW 11 17 6 9 1023.6 - 0.0
26/11:00am 12.5 10.6 9.0 79 1.8 NW 9 13 5 7 1023.7 1023.9 0.0
26/10:30am 12.0 11.6 9.9 87 1.1 N 2 9 1 5 1023.8 - 0.0
26/10:00am 11.4 11.5 10.1 92 0.7 CALM 0 6 0 3 1023.8 1024.0 0.0
26/09:30am 11.3 11.5 10.5 95 0.4 CALM 0 2 0 1 1023.6 - 0.0
26/09:00am 10.8 10.9 10.3 97 0.3 CALM 0 0 0 0 1023.2 1023.4 1.0
26/08:30am 10.3 10.3 9.7 96 0.3 CALM 0 0 0 0 1022.9 - 1.0
26/08:00am 10.1 10.0 9.3 95 0.4 CALM 0 0 0 0 1022.6 1022.8 1.0
26/07:30am 10.2 10.1 9.4 95 0.4 CALM 0 0 0 0 1022.4 - 0.8
26/07:00am 10.2 10.0 9.1 93 0.5 CALM 0 0 0 0 1022.1 1022.3 0.8
26/06:30am 10.5 10.4 9.4 93 0.6 CALM 0 0 0 0 1021.7 - 0.8
26/06:00am 10.8 9.9 9.2 90 0.8 N 4 7 2 4 1021.3 1021.5 0.6
26/05:30am 11.0 10.1 9.3 89 0.9 N 4 9 2 5 1021.1 - 0.2
26/05:00am 11.0 9.2 9.3 89 0.9 N 9 13 5 7 1020.8 1021.0 0.2
26/04:30am 11.0 9.7 9.1 88 0.9 N 6 7 3 4 1020.6 - 0.2
26/04:00am 11.3 9.4 9.2 87 1.1 N 9 15 5 8 1020.5 1020.7 0.2
26/03:30am 11.3 9.1 9.2 87 1.1 N 11 15 6 8 1020.3 - 0.2
26/03:00am 11.3 9.1 9.4 88 1.0 N 11 17 6 9 1020.4 1020.6 0.2
26/02:30am 11.2 8.9 9.1 87 1.1 N 11 17 6 9 1020.4 - 0.2
26/02:00am 11.6 9.0 9.3 86 1.2 N 13 19 7 10 1020.4 1020.6 0.2
26/01:30am 11.8 9.2 9.4 85 1.2 N 13 20 7 11 1020.2 - 0.2
26/01:00am 11.7 9.2 9.6 87 1.1 N 13 19 7 10 1020.2 1020.4 0.2
26/12:30am 11.8 9.6 9.4 85 1.2 N 11 17 6 9 1020.3 - 0.2
26/12:00am 11.8 10.0 9.4 85 1.2 N 9 11 5 6 1020.2 1020.4 0.2
 
Date/Time
EST
Temp
°C
App
Temp
°C
Dew
Point
Rel
Hum
%
Delta-T
°C
Wind Press
QNH
hPa
Press
MSL
hPa
Rain
since 9 am
mm
Dir
 
Spd
km/h
Gust
km/h
Spd
kts
Gust
kts
25/11:30pm 11.8 9.9 9.2 84 1.3 N 9 13 5 7 1020.1 - 0.2
25/11:00pm 11.7 9.4 9.1 84 1.3 N 11 17 6 9 1020.1 1020.3 0.2
25/10:30pm 12.1 9.4 8.9 81 1.6 N 13 17 7 9 1019.9 - 0.2
25/10:00pm 12.2 9.3 9.6 84 1.3 N 15 20 8 11 1019.9 1020.1 0.2
25/09:30pm 12.2 10.1 9.9 86 1.2 N 11 15 6 8 1019.7 - 0.2
25/09:00pm 12.0 10.4 10.1 88 1.0 N 9 13 5 7 1019.5 1019.7 0.2
25/08:30pm 12.2 10.6 10.1 87 1.1 N 9 17 5 9 1019.4 - 0.2
25/08:00pm 12.6 10.1 9.8 83 1.4 N 13 19 7 10 1019.4 1019.6 0.2
25/07:30pm 12.5 10.4 9.7 83 1.4 N 11 17 6 9 1018.9 - 0.2
25/07:00pm 12.5 10.0 9.7 83 1.4 N 13 20 7 11 1018.6 1018.8 0.2
25/06:30pm 12.7 9.3 9.3 80 1.7 N 17 26 9 14 1018.4 - 0.2

Other Formats:

Comma delimited format used in spreadsheet applications
http://www.bom.gov.au/fwo/IDV60801/IDV60801.94864.axf

JavaScript Object Notation format (JSON) in row-major order
http://www.bom.gov.au/fwo/IDV60801/IDV60801.94864.json